sensor_id;sensor_type;location;lat;lon;timestamp;pressure;altitude;pressure_sealevel;temperature;humidity
51099;BME280;37146;48.210;16.234;2023-04-08T00:01:03;98804.13;;;4.35;100.00
51099;BME280;37146;48.210;16.234;2023-04-08T00:03:29;98800.44;;;4.39;100.00
51099;BME280;37146;48.210;16.234;2023-04-08T00:05:54;98798.63;;;4.41;100.00
51099;BME280;37146;48.210;16.234;2023-04-08T00:08:19;98809.22;;;4.41;100.00
51099;BME280;37146;48.210;16.234;2023-04-08T00:10:45;98804.66;;;4.46;100.00
51099;BME280;37146;48.210;16.234;2023-04-08T00:13:10;98800.44;;;4.40;100.00
51099;BME280;37146;48.210;16.234;2023-04-08T00:15:35;98800.31;;;4.43;100.00
51099;BME280;37146;48.210;16.234;2023-04-08T00:18:00;98796.59;;;4.51;100.00
51099;BME280;37146;48.210;16.234;2023-04-08T00:20:26;98803.84;;;4.44;100.00
51099;BME280;37146;48.210;16.234;2023-04-08T00:22:51;98801.22;;;4.42;100.00
51099;BME280;37146;48.210;16.234;2023-04-08T00:25:16;98803.19;;;4.36;100.00
51099;BME280;37146;48.210;16.234;2023-04-08T00:27:42;98803.94;;;4.41;100.00
51099;BME280;37146;48.210;16.234;2023-04-08T00:30:07;98801.63;;;4.30;100.00
51099;BME280;37146;48.210;16.234;2023-04-08T00:32:32;98801.50;;;4.33;100.00
51099;BME280;37146;48.210;16.234;2023-04-08T00:34:57;98805.19;;;4.27;100.00
51099;BME280;37146;48.210;16.234;2023-04-08T00:37:23;98802.47;;;4.30;100.00
51099;BME280;37146;48.210;16.234;2023-04-08T00:39:49;98812.44;;;4.21;100.00
51099;BME280;37146;48.210;16.234;2023-04-08T00:42:15;98810.34;;;4.32;100.00
51099;BME280;37146;48.210;16.234;2023-04-08T00:44:40;98803.09;;;4.09;100.00
51099;BME280;37146;48.210;16.234;2023-04-08T00:47:05;98813.69;;;4.09;100.00
51099;BME280;37146;48.210;16.234;2023-04-08T00:49:31;98808.31;;;4.12;100.00
51099;BME280;37146;48.210;16.234;2023-04-08T00:51:57;98806.69;;;4.06;100.00
51099;BME280;37146;48.210;16.234;2023-04-08T00:54:22;98802.75;;;3.90;100.00
51099;BME280;37146;48.210;16.234;2023-04-08T00:56:48;98807.25;;;3.86;100.00
51099;BME280;37146;48.210;16.234;2023-04-08T00:59:13;98818.84;;;3.47;100.00
51099;BME280;37146;48.210;16.234;2023-04-08T01:01:49;98817.75;;;3.89;100.00
51099;BME280;37146;48.210;16.234;2023-04-08T01:04:20;98812.50;;;3.54;100.00
51099;BME280;37146;48.210;16.234;2023-04-08T01:06:56;98811.56;;;3.57;100.00
51099;BME280;37146;48.210;16.234;2023-04-08T01:09:24;98819.91;;;3.75;100.00
51099;BME280;37146;48.210;16.234;2023-04-08T01:11:51;98815.38;;;3.45;100.00
51099;BME280;37146;48.210;16.234;2023-04-08T01:14:20;98821.88;;;3.33;100.00
51099;BME280;37146;48.210;16.234;2023-04-08T01:16:47;98823.13;;;3.18;100.00
51099;BME280;37146;48.210;16.234;2023-04-08T01:19:29;98825.47;;;3.31;100.00
51099;BME280;37146;48.210;16.234;2023-04-08T01:22:00;98826.78;;;3.47;100.00
51099;BME280;37146;48.210;16.234;2023-04-08T01:24:27;98824.06;;;3.50;100.00
51099;BME280;37146;48.210;16.234;2023-04-08T01:26:54;98832.38;;;3.35;100.00
51099;BME280;37146;48.210;16.234;2023-04-08T01:29:21;98829.16;;;3.23;100.00
51099;BME280;37146;48.210;16.234;2023-04-08T01:31:47;98834.81;;;3.08;100.00
51099;BME280;37146;48.210;16.234;2023-04-08T01:34:12;98829.38;;;2.76;100.00
51099;BME280;37146;48.210;16.234;2023-04-08T01:36:39;98825.94;;;3.11;100.00
51099;BME280;37146;48.210;16.234;2023-04-08T01:39:05;98827.69;;;3.10;100.00
51099;BME280;37146;48.210;16.234;2023-04-08T01:41:33;98833.66;;;2.82;100.00
51099;BME280;37146;48.210;16.234;2023-04-08T01:43:59;98829.81;;;2.96;100.00
51099;BME280;37146;48.210;16.234;2023-04-08T01:46:26;98832.47;;;2.96;100.00
51099;BME280;37146;48.210;16.234;2023-04-08T01:48:51;98830.69;;;2.96;100.00
51099;BME280;37146;48.210;16.234;2023-04-08T01:51:18;98837.34;;;2.75;100.00
51099;BME280;37146;48.210;16.234;2023-04-08T01:53:44;98827.78;;;2.69;100.00
51099;BME280;37146;48.210;16.234;2023-04-08T01:56:10;98825.78;;;2.81;100.00
51099;BME280;37146;48.210;16.234;2023-04-08T01:58:38;98829.69;;;2.62;100.00
51099;BME280;37146;48.210;16.234;2023-04-08T02:01:05;98829.16;;;2.46;100.00
51099;BME280;37146;48.210;16.234;2023-04-08T02:03:34;98826.81;;;2.32;100.00
51099;BME280;37146;48.210;16.234;2023-04-08T02:06:00;98825.06;;;2.33;100.00
51099;BME280;37146;48.210;16.234;2023-04-08T02:08:25;98824.09;;;2.36;100.00
51099;BME280;37146;48.210;16.234;2023-04-08T02:10:50;98827.38;;;2.47;100.00
51099;BME280;37146;48.210;16.234;2023-04-08T02:13:16;98826.16;;;2.21;100.00
51099;BME280;37146;48.210;16.234;2023-04-08T02:15:42;98828.63;;;2.30;100.00
51099;BME280;37146;48.210;16.234;2023-04-08T02:18:21;98828.59;;;2.32;100.00
51099;BME280;37146;48.210;16.234;2023-04-08T02:23:47;98831.25;;;2.71;100.00
51099;BME280;37146;48.210;16.234;2023-04-08T02:26:13;98841.91;;;2.68;100.00
51099;BME280;37146;48.210;16.234;2023-04-08T02:28:40;98841.91;;;2.68;100.00
51099;BME280;37146;48.210;16.234;2023-04-08T02:31:08;98835.66;;;2.71;100.00
51099;BME280;37146;48.210;16.234;2023-04-08T02:33:34;98836.03;;;2.54;100.00
51099;BME280;37146;48.210;16.234;2023-04-08T02:36:01;98840.94;;;2.71;100.00
51099;BME280;37146;48.210;16.234;2023-04-08T02:38:26;98840.31;;;2.59;100.00
51099;BME280;37146;48.210;16.234;2023-04-08T02:40:54;98835.03;;;2.59;100.00
51099;BME280;37146;48.210;16.234;2023-04-08T02:43:20;98841.31;;;2.54;100.00
51099;BME280;37146;48.210;16.234;2023-04-08T02:45:45;98835.09;;;2.58;100.00
51099;BME280;37146;48.210;16.234;2023-04-08T02:48:10;98837.63;;;2.61;100.00
51099;BME280;37146;48.210;16.234;2023-04-08T02:50:36;98844.69;;;2.60;100.00
51099;BME280;37146;48.210;16.234;2023-04-08T02:53:01;98844.97;;;2.48;100.00
51099;BME280;37146;48.210;16.234;2023-04-08T02:55:26;98843.97;;;2.54;100.00
51099;BME280;37146;48.210;16.234;2023-04-08T02:57:52;98840.63;;;2.44;100.00
51099;BME280;37146;48.210;16.234;2023-04-08T03:00:17;98837.34;;;2.32;100.00
51099;BME280;37146;48.210;16.234;2023-04-08T03:02:42;98842.00;;;2.21;100.00
51099;BME280;37146;48.210;16.234;2023-04-08T03:05:07;98840.84;;;2.35;100.00
51099;BME280;37146;48.210;16.234;2023-04-08T03:07:33;98841.84;;;2.29;100.00
51099;BME280;37146;48.210;16.234;2023-04-08T03:09:59;98845.13;;;2.42;100.00
51099;BME280;37146;48.210;16.234;2023-04-08T03:12:24;98846.81;;;2.43;100.00
51099;BME280;37146;48.210;16.234;2023-04-08T03:14:51;98845.81;;;2.50;100.00
51099;BME280;37146;48.210;16.234;2023-04-08T03:17:16;98846.81;;;2.43;100.00
51099;BME280;37146;48.210;16.234;2023-04-08T03:19:42;98843.63;;;2.28;100.00
51099;BME280;37146;48.210;16.234;2023-04-08T03:22:07;98845.22;;;2.36;100.00
51099;BME280;37146;48.210;16.234;2023-04-08T03:24:33;98846.81;;;2.43;100.00
51099;BME280;37146;48.210;16.234;2023-04-08T03:26:59;98844.38;;;2.35;100.00
51099;BME280;37146;48.210;16.234;2023-04-08T03:29:24;98851.53;;;2.28;100.00
51099;BME280;37146;48.210;16.234;2023-04-08T03:31:50;98853.97;;;2.38;100.00
51099;BME280;37146;48.210;16.234;2023-04-08T03:34:15;98848.09;;;2.25;100.00
51099;BME280;37146;48.210;16.234;2023-04-08T03:36:40;98853.38;;;2.23;100.00
51099;BME280;37146;48.210;16.234;2023-04-08T03:39:05;98861.50;;;2.14;100.00
51099;BME280;37146;48.210;16.234;2023-04-08T03:41:31;98862.53;;;2.07;100.00
51099;BME280;37146;48.210;16.234;2023-04-08T03:43:56;98857.25;;;2.05;100.00
51099;BME280;37146;48.210;16.234;2023-04-08T03:46:22;98861.81;;;1.98;100.00
51099;BME280;37146;48.210;16.234;2023-04-08T03:48:47;98866.00;;;2.09;100.00
51099;BME280;37146;48.210;16.234;2023-04-08T03:51:12;98863.44;;;2.06;100.00
51099;BME280;37146;48.210;16.234;2023-04-08T03:53:38;98868.34;;;1.77;100.00
51099;BME280;37146;48.210;16.234;2023-04-08T03:56:03;98865.50;;;1.88;100.00
51099;BME280;37146;48.210;16.234;2023-04-08T03:58:28;98873.59;;;1.79;100.00
51099;BME280;37146;48.210;16.234;2023-04-08T04:00:54;98873.41;;;1.90;100.00
51099;BME280;37146;48.210;16.234;2023-04-08T04:03:19;98879.59;;;1.87;100.00
51099;BME280;37146;48.210;16.234;2023-04-08T04:05:45;98874.44;;;1.81;100.00
51099;BME280;37146;48.210;16.234;2023-04-08T04:08:10;98887.78;;;1.72;100.00
51099;BME280;37146;48.210;16.234;2023-04-08T04:10:35;98888.00;;;1.59;100.00
51099;BME280;37146;48.210;16.234;2023-04-08T04:13:00;98885.56;;;1.47;100.00
51099;BME280;37146;48.210;16.234;2023-04-08T04:15:26;98890.03;;;1.43;100.00
51099;BME280;37146;48.210;16.234;2023-04-08T04:17:51;98886.25;;;1.58;100.00
51099;BME280;37146;48.210;16.234;2023-04-08T04:20:16;98894.53;;;1.36;100.00
51099;BME280;37146;48.210;16.234;2023-04-08T04:22:42;98895.34;;;1.42;100.00
51099;BME280;37146;48.210;16.234;2023-04-08T04:25:07;98890.59;;;1.61;100.00
51099;BME280;37146;48.210;16.234;2023-04-08T04:27:33;98895.34;;;1.40;100.00
51099;BME280;37146;48.210;16.234;2023-04-08T04:29:59;98896.09;;;1.48;100.00
51099;BME280;37146;48.210;16.234;2023-04-08T04:32:24;98895.34;;;1.40;100.00
51099;BME280;37146;48.210;16.234;2023-04-08T04:34:50;98897.13;;;1.39;100.00
51099;BME280;37146;48.210;16.234;2023-04-08T04:37:15;98905.72;;;1.49;100.00
51099;BME280;37146;48.210;16.234;2023-04-08T04:39:41;98904.91;;;1.46;100.00
51099;BME280;37146;48.210;16.234;2023-04-08T04:42:06;98902.03;;;1.61;100.00
51099;BME280;37146;48.210;16.234;2023-04-08T04:44:31;98902.91;;;1.60;100.00
51099;BME280;37146;48.210;16.234;2023-04-08T04:46:57;98905.69;;;1.54;100.00
51099;BME280;37146;48.210;16.234;2023-04-08T04:49:22;98901.38;;;1.47;100.00
51099;BME280;37146;48.210;16.234;2023-04-08T04:51:47;98908.31;;;1.54;100.00
51099;BME280;37146;48.210;16.234;2023-04-08T04:54:13;98914.47;;;1.51;100.00
51099;BME280;37146;48.210;16.234;2023-04-08T04:56:38;98916.25;;;1.51;100.00
51099;BME280;37146;48.210;16.234;2023-04-08T04:59:03;98912.81;;;1.46;100.00
51099;BME280;37146;48.210;16.234;2023-04-08T05:01:29;98910.91;;;1.56;100.00
51099;BME280;37146;48.210;16.234;2023-04-08T05:03:56;98917.94;;;1.55;100.00
51099;BME280;37146;48.210;16.234;2023-04-08T05:06:24;98919.09;;;1.38;100.00
51099;BME280;37146;48.210;16.234;2023-04-08T05:08:51;98917.31;;;1.41;100.00
51099;BME280;37146;48.210;16.234;2023-04-08T05:11:16;98928.00;;;1.30;100.00
51099;BME280;37146;48.210;16.234;2023-04-08T05:13:42;98926.97;;;1.42;100.00
51099;BME280;37146;48.210;16.234;2023-04-08T05:16:07;98935.75;;;1.41;100.00
51099;BME280;37146;48.210;16.234;2023-04-08T05:18:33;98935.00;;;1.31;100.00
51099;BME280;37146;48.210;16.234;2023-04-08T05:20:58;98940.28;;;1.32;100.00
51099;BME280;37146;48.210;16.234;2023-04-08T05:23:23;98935.06;;;1.28;100.00
51099;BME280;37146;48.210;16.234;2023-04-08T05:25:48;98935.88;;;1.33;100.00
51099;BME280;37146;48.210;16.234;2023-04-08T05:28:14;98941.97;;;1.36;100.00
51099;BME280;37146;48.210;16.234;2023-04-08T05:30:39;98943.31;;;1.62;100.00
51099;BME280;37146;48.210;16.234;2023-04-08T05:33:04;98941.38;;;1.74;100.00
51099;BME280;37146;48.210;16.234;2023-04-08T05:35:30;98944.16;;;1.64;100.00
51099;BME280;37146;48.210;16.234;2023-04-08T05:37:55;98957.53;;;1.52;100.00
51099;BME280;37146;48.210;16.234;2023-04-08T05:40:20;98955.88;;;1.46;100.00
51099;BME280;37146;48.210;16.234;2023-04-08T05:42:45;98964.44;;;1.59;100.00
51099;BME280;37146;48.210;16.234;2023-04-08T05:45:11;98957.28;;;1.67;100.00
51099;BME280;37146;48.210;16.234;2023-04-08T05:47:36;98960.88;;;1.63;100.00
51099;BME280;37146;48.210;16.234;2023-04-08T05:50:01;98966.00;;;1.73;100.00
51099;BME280;37146;48.210;16.234;2023-04-08T05:52:26;98973.88;;;1.76;100.00
51099;BME280;37146;48.210;16.234;2023-04-08T05:54:51;98973.00;;;1.74;100.00
51099;BME280;37146;48.210;16.234;2023-04-08T05:57:17;98972.84;;;1.83;100.00
51099;BME280;37146;48.210;16.234;2023-04-08T05:59:42;98980.19;;;1.65;100.00
51099;BME280;37146;48.210;16.234;2023-04-08T06:02:07;98975.53;;;1.80;100.00
51099;BME280;37146;48.210;16.234;2023-04-08T06:04:33;98980.03;;;1.75;100.00
51099;BME280;37146;48.210;16.234;2023-04-08T06:06:58;98978.13;;;1.83;100.00
51099;BME280;37146;48.210;16.234;2023-04-08T06:09:23;98980.91;;;1.74;100.00
51099;BME280;37146;48.210;16.234;2023-04-08T06:11:49;98986.34;;;1.63;100.00
51099;BME280;37146;48.210;16.234;2023-04-08T06:14:14;98981.84;;;1.69;100.00
51099;BME280;37146;48.210;16.234;2023-04-08T06:16:40;98981.81;;;1.73;100.00
51099;BME280;37146;48.210;16.234;2023-04-08T06:19:05;98989.59;;;1.80;100.00
51099;BME280;37146;48.210;16.234;2023-04-08T06:21:30;98990.47;;;1.81;100.00
51099;BME280;37146;48.210;16.234;2023-04-08T06:23:55;98991.34;;;1.81;100.00
51099;BME280;37146;48.210;16.234;2023-04-08T06:26:21;98990.22;;;1.95;100.00
51099;BME280;37146;48.210;16.234;2023-04-08T06:28:46;98997.44;;;1.85;100.00
51099;BME280;37146;48.210;16.234;2023-04-08T06:31:11;98995.75;;;1.81;100.00
51099;BME280;37146;48.210;16.234;2023-04-08T06:33:36;98995.41;;;1.99;100.00
51099;BME280;37146;48.210;16.234;2023-04-08T06:36:02;98995.69;;;1.82;100.00
51099;BME280;37146;48.210;16.234;2023-04-08T06:38:28;98996.34;;;1.98;100.00
51099;BME280;37146;48.210;16.234;2023-04-08T06:40:53;98993.75;;;1.95;100.00
51099;BME280;37146;48.210;16.234;2023-04-08T06:43:18;99001.50;;;2.05;100.00
51099;BME280;37146;48.210;16.234;2023-04-08T06:45:43;99001.53;;;2.03;100.00
51099;BME280;37146;48.210;16.234;2023-04-08T06:48:10;99003.25;;;2.06;100.00
51099;BME280;37146;48.210;16.234;2023-04-08T06:50:36;99004.09;;;2.08;100.00
51099;BME280;37146;48.210;16.234;2023-04-08T06:53:01;99003.22;;;2.07;100.00
51099;BME280;37146;48.210;16.234;2023-04-08T06:55:26;99002.19;;;2.16;100.00
51099;BME280;37146;48.210;16.234;2023-04-08T06:57:51;99008.53;;;2.04;100.00
51099;BME280;37146;48.210;16.234;2023-04-08T07:00:17;99007.47;;;2.16;100.00
51099;BME280;37146;48.210;16.234;2023-04-08T07:02:42;99012.56;;;2.25;100.00
51099;BME280;37146;48.210;16.234;2023-04-08T07:05:07;99011.84;;;2.15;100.00
51099;BME280;37146;48.210;16.234;2023-04-08T07:07:32;99005.56;;;2.24;100.00
51099;BME280;37146;48.210;16.234;2023-04-08T07:09:58;99009.09;;;2.23;100.00
51099;BME280;37146;48.210;16.234;2023-04-08T07:12:23;99009.84;;;2.31;100.00
51099;BME280;37146;48.210;16.234;2023-04-08T07:14:48;99019.44;;;2.36;100.00
51099;BME280;37146;48.210;16.234;2023-04-08T07:17:13;99021.97;;;2.42;100.00
51099;BME280;37146;48.210;16.234;2023-04-08T07:19:39;99021.97;;;2.40;100.00
51099;BME280;37146;48.210;16.234;2023-04-08T07:22:06;99030.03;;;2.32;100.00
51099;BME280;37146;48.210;16.234;2023-04-08T07:24:31;99030.91;;;2.33;100.00
51099;BME280;37146;48.210;16.234;2023-04-08T07:26:58;99030.28;;;2.67;100.00
51099;BME280;37146;48.210;16.234;2023-04-08T07:29:23;99033.13;;;2.56;100.00
51099;BME280;37146;48.210;16.234;2023-04-08T07:31:48;99032.53;;;2.42;100.00
51099;BME280;37146;48.210;16.234;2023-04-08T07:34:13;99042.16;;;2.43;100.00
51099;BME280;37146;48.210;16.234;2023-04-08T07:36:39;99036.84;;;2.46;100.00
51099;BME280;37146;48.210;16.234;2023-04-08T07:39:04;99040.16;;;2.57;100.00
51099;BME280;37146;48.210;16.234;2023-04-08T07:41:30;99042.06;;;2.49;100.00
51099;BME280;37146;48.210;16.234;2023-04-08T07:43:55;99048.06;;;2.57;100.00
51099;BME280;37146;48.210;16.234;2023-04-08T07:46:20;99054.97;;;2.66;100.00
51099;BME280;37146;48.210;16.234;2023-04-08T07:48:45;99061.19;;;2.63;100.00
51099;BME280;37146;48.210;16.234;2023-04-08T07:51:11;99061.25;;;2.59;100.00
51099;BME280;37146;48.210;16.234;2023-04-08T07:53:36;99061.22;;;2.60;100.00
51099;BME280;37146;48.210;16.234;2023-04-08T07:56:02;99067.25;;;2.67;100.00
51099;BME280;37146;48.210;16.234;2023-04-08T07:58:28;99062.34;;;2.47;100.00
51099;BME280;37146;48.210;16.234;2023-04-08T08:00:53;99067.31;;;2.64;100.00
51099;BME280;37146;48.210;16.234;2023-04-08T08:03:19;99068.84;;;2.76;100.00
51099;BME280;37146;48.210;16.234;2023-04-08T08:05:44;99067.41;;;2.59;100.00
51099;BME280;37146;48.210;16.234;2023-04-08T08:08:09;99069.09;;;2.62;100.00
51099;BME280;37146;48.210;16.234;2023-04-08T08:10:36;99066.31;;;2.70;100.00
51099;BME280;37146;48.210;16.234;2023-04-08T08:13:01;99074.13;;;2.76;100.00
51099;BME280;37146;48.210;16.234;2023-04-08T08:15:26;99066.28;;;2.73;100.00
51099;BME280;37146;48.210;16.234;2023-04-08T08:17:52;99080.19;;;2.81;100.00
51099;BME280;37146;48.210;16.234;2023-04-08T08:20:17;99075.69;;;2.88;100.00
51099;BME280;37146;48.210;16.234;2023-04-08T08:22:42;99084.47;;;2.88;100.00
51099;BME280;37146;48.210;16.234;2023-04-08T08:25:09;99080.81;;;2.94;100.00
51099;BME280;37146;48.210;16.234;2023-04-08T08:27:34;99076.28;;;3.01;100.00
51099;BME280;37146;48.210;16.234;2023-04-08T08:30:00;99082.13;;;3.18;100.00
51099;BME280;37146;48.210;16.234;2023-04-08T08:32:25;99089.41;;;3.07;100.00
51099;BME280;37146;48.210;16.234;2023-04-08T08:34:50;99098.09;;;3.12;100.00
51099;BME280;37146;48.210;16.234;2023-04-08T08:37:16;99101.19;;;3.33;100.00
51099;BME280;37146;48.210;16.234;2023-04-08T08:39:41;99095.94;;;3.31;100.00
51099;BME280;37146;48.210;16.234;2023-04-08T08:42:06;99102.84;;;3.38;100.00
51099;BME280;37146;48.210;16.234;2023-04-08T08:44:32;99099.41;;;3.35;100.00
51099;BME280;37146;48.210;16.234;2023-04-08T08:46:58;99100.44;;;3.28;100.00
51099;BME280;37146;48.210;16.234;2023-04-08T08:49:24;99111.31;;;3.12;100.00
51099;BME280;37146;48.210;16.234;2023-04-08T08:51:49;99106.44;;;3.36;100.00
51099;BME280;37146;48.210;16.234;2023-04-08T08:54:16;99111.38;;;3.53;100.00
51099;BME280;37146;48.210;16.234;2023-04-08T08:56:41;99110.69;;;3.43;100.00
51099;BME280;37146;48.210;16.234;2023-04-08T08:59:07;99111.03;;;3.26;100.00
51099;BME280;37146;48.210;16.234;2023-04-08T09:01:33;99112.41;;;3.44;100.00
51099;BME280;37146;48.210;16.234;2023-04-08T09:04:32;99125.50;;;3.52;100.00
51099;BME280;37146;48.210;16.234;2023-04-08T09:07:09;99124.31;;;3.65;100.00
51099;BME280;37146;48.210;16.234;2023-04-08T09:09:47;99123.81;;;3.48;100.00
51099;BME280;37146;48.210;16.234;2023-04-08T09:12:12;99125.69;;;3.43;100.00
51099;BME280;37146;48.210;16.234;2023-04-08T09:14:38;99129.28;;;3.38;100.00
51099;BME280;37146;48.210;16.234;2023-04-08T09:17:03;99129.53;;;3.26;100.00
51099;BME280;37146;48.210;16.234;2023-04-08T09:19:28;99144.59;;;3.22;100.00
51099;BME280;37146;48.210;16.234;2023-04-08T09:22:03;99145.47;;;3.21;100.00
51099;BME280;37146;48.210;16.234;2023-04-08T09:24:29;99150.06;;;3.13;100.00
51099;BME280;37146;48.210;16.234;2023-04-08T09:26:54;99145.78;;;3.06;100.00
51099;BME280;37146;48.210;16.234;2023-04-08T09:29:20;99143.91;;;3.11;100.00
51099;BME280;37146;48.210;16.234;2023-04-08T09:31:47;99146.50;;;3.14;100.00
51099;BME280;37146;48.210;16.234;2023-04-08T09:34:17;99156.13;;;3.18;100.00
51099;BME280;37146;48.210;16.234;2023-04-08T09:36:44;99147.47;;;3.10;100.00
51099;BME280;37146;48.210;16.234;2023-04-08T09:39:10;99156.28;;;3.09;100.00
51099;BME280;37146;48.210;16.234;2023-04-08T09:41:36;99164.16;;;3.12;100.00
51099;BME280;37146;48.210;16.234;2023-04-08T09:44:03;99163.19;;;3.18;100.00
51099;BME280;37146;48.210;16.234;2023-04-08T09:51:28;99170.34;;;3.13;100.00
51099;BME280;37146;48.210;16.234;2023-04-08T09:53:58;99175.00;;;2.98;100.00
51099;BME280;37146;48.210;16.234;2023-04-08T09:56:25;99176.59;;;3.07;100.00
51099;BME280;37146;48.210;16.234;2023-04-08T09:58:57;99172.50;;;2.90;100.00
51099;BME280;37146;48.210;16.234;2023-04-08T10:01:31;99172.31;;;3.01;100.00
51099;BME280;37146;48.210;16.234;2023-04-08T10:03:59;99172.09;;;3.14;100.00
51099;BME280;37146;48.210;16.234;2023-04-08T10:06:27;99178.50;;;3.00;100.00
51099;BME280;37146;48.210;16.234;2023-04-08T10:08:54;99180.78;;;3.19;100.00
51099;BME280;37146;48.210;16.234;2023-04-08T10:11:19;99177.09;;;3.26;100.00
51099;BME280;37146;48.210;16.234;2023-04-08T10:13:45;99174.81;;;3.07;100.00
51099;BME280;37146;48.210;16.234;2023-04-08T10:16:18;99181.25;;;2.92;100.00
51099;BME280;37146;48.210;16.234;2023-04-08T10:18:45;99180.09;;;3.07;100.00
51099;BME280;37146;48.210;16.234;2023-04-08T10:21:29;99180.03;;;3.12;100.00
51099;BME280;37146;48.210;16.234;2023-04-08T10:23:56;99181.91;;;3.07;100.00
51099;BME280;37146;48.210;16.234;2023-04-08T10:26:30;99179.34;;;3.02;100.00
51099;BME280;37146;48.210;16.234;2023-04-08T10:29:20;99178.28;;;3.11;100.00
51099;BME280;37146;48.210;16.234;2023-04-08T10:31:43;99185.13;;;3.21;100.00
51099;BME280;37146;48.210;16.234;2023-04-08T10:34:21;99180.59;;;3.30;100.00
51099;BME280;37146;48.210;16.234;2023-04-08T10:36:48;99186.69;;;3.32;100.00
51099;BME280;37146;48.210;16.234;2023-04-08T10:39:14;99185.75;;;3.36;100.00
51099;BME280;37146;48.210;16.234;2023-04-08T10:41:40;99188.63;;;3.23;100.00
51099;BME280;37146;48.210;16.234;2023-04-08T10:44:14;99191.94;;;3.35;100.00
51099;BME280;37146;48.210;16.234;2023-04-08T10:46:39;99189.31;;;3.33;100.00
51099;BME280;37146;48.210;16.234;2023-04-08T10:49:05;99189.19;;;3.39;100.00
51099;BME280;37146;48.210;16.234;2023-04-08T10:51:31;99189.91;;;3.49;100.00
51099;BME280;37146;48.210;16.234;2023-04-08T10:54:04;99193.53;;;3.42;100.00
51099;BME280;37146;48.210;16.234;2023-04-08T10:56:29;99196.56;;;3.23;100.00
51099;BME280;37146;48.210;16.234;2023-04-08T10:58:54;99192.81;;;3.35;100.00
51099;BME280;37146;48.210;16.234;2023-04-08T11:01:24;99199.16;;;3.27;100.00
51099;BME280;37146;48.210;16.234;2023-04-08T11:03:49;99205.09;;;3.38;100.00
51099;BME280;37146;48.210;16.234;2023-04-08T11:06:15;99202.41;;;3.41;100.00
51099;BME280;37146;48.210;16.234;2023-04-08T11:08:41;99206.81;;;3.40;100.00
51099;BME280;37146;48.210;16.234;2023-04-08T11:11:08;99200.47;;;3.48;100.00
51099;BME280;37146;48.210;16.234;2023-04-08T11:13:39;99201.78;;;3.27;100.00
51099;BME280;37146;48.210;16.234;2023-04-08T11:16:05;99204.31;;;3.33;100.00
51099;BME280;37146;48.210;16.234;2023-04-08T11:18:31;99206.00;;;3.37;100.00
51099;BME280;37146;48.210;16.234;2023-04-08T11:20:56;99197.41;;;3.25;100.00
51099;BME280;37146;48.210;16.234;2023-04-08T11:23:23;99207.84;;;3.32;100.00
51099;BME280;37146;48.210;16.234;2023-04-08T11:25:48;99197.44;;;3.22;100.00
51099;BME280;37146;48.210;16.234;2023-04-08T11:28:14;99212.84;;;3.47;100.00
51099;BME280;37146;48.210;16.234;2023-04-08T11:30:40;99210.38;;;3.38;100.00
51099;BME280;37146;48.210;16.234;2023-04-08T11:33:06;99214.59;;;3.48;100.00
51099;BME280;37146;48.210;16.234;2023-04-08T11:35:32;99209.41;;;3.42;100.00
51099;BME280;37146;48.210;16.234;2023-04-08T11:37:57;99207.84;;;3.32;100.00
51099;BME280;37146;48.210;16.234;2023-04-08T11:40:23;99213.88;;;3.38;100.00
51099;BME280;37146;48.210;16.234;2023-04-08T11:42:49;99212.78;;;3.50;100.00
51099;BME280;37146;48.210;16.234;2023-04-08T11:45:15;99216.34;;;3.48;100.00
51099;BME280;37146;48.210;16.234;2023-04-08T11:47:40;99211.16;;;3.43;100.00
51099;BME280;37146;48.210;16.234;2023-04-08T11:50:06;99220.66;;;3.53;100.00
51099;BME280;37146;48.210;16.234;2023-04-08T11:52:41;99214.34;;;3.61;100.00
51099;BME280;37146;48.210;16.234;2023-04-08T11:55:08;99223.19;;;3.60;100.00
51099;BME280;37146;48.210;16.234;2023-04-08T11:57:33;99223.50;;;3.43;100.00
51099;BME280;37146;48.210;16.234;2023-04-08T12:00:00;99219.13;;;3.42;100.00
51099;BME280;37146;48.210;16.234;2023-04-08T12:02:25;99215.63;;;3.41;100.00
51099;BME280;37146;48.210;16.234;2023-04-08T12:04:50;99220.97;;;3.36;100.00
51099;BME280;37146;48.210;16.234;2023-04-08T12:07:16;99216.53;;;3.40;100.00
51099;BME280;37146;48.210;16.234;2023-04-08T12:09:41;99220.88;;;3.43;100.00
51099;BME280;37146;48.210;16.234;2023-04-08T12:12:06;99217.34;;;3.44;100.00
51099;BME280;37146;48.210;16.234;2023-04-08T12:14:32;99222.66;;;3.40;100.00
51099;BME280;37146;48.210;16.234;2023-04-08T12:16:57;99220.91;;;3.41;100.00
51099;BME280;37146;48.210;16.234;2023-04-08T12:19:22;99216.44;;;3.43;100.00
51099;BME280;37146;48.210;16.234;2023-04-08T12:21:47;99221.72;;;3.43;100.00
51099;BME280;37146;48.210;16.234;2023-04-08T12:24:13;99217.34;;;3.42;100.00
51099;BME280;37146;48.210;16.234;2023-04-08T12:26:38;99223.38;;;3.49;100.00
51099;BME280;37146;48.210;16.234;2023-04-08T12:29:03;99221.63;;;3.49;100.00
51099;BME280;37146;48.210;16.234;2023-04-08T12:31:29;99220.81;;;3.46;100.00
51099;BME280;37146;48.210;16.234;2023-04-08T12:33:54;99230.47;;;3.48;100.00
51099;BME280;37146;48.210;16.234;2023-04-08T12:36:20;99225.31;;;3.40;100.00
51099;BME280;37146;48.210;16.234;2023-04-08T12:38:45;99220.03;;;3.40;100.00
51099;BME280;37146;48.210;16.234;2023-04-08T12:41:11;99228.75;;;3.44;100.00
51099;BME280;37146;48.210;16.234;2023-04-08T12:43:36;99228.72;;;3.47;100.00
51099;BME280;37146;48.210;16.234;2023-04-08T12:46:02;99233.81;;;3.56;100.00
51099;BME280;37146;48.210;16.234;2023-04-08T12:48:28;99229.84;;;3.35;100.00
51099;BME280;37146;48.210;16.234;2023-04-08T12:50:53;99231.59;;;3.35;100.00
51099;BME280;37146;48.210;16.234;2023-04-08T12:53:18;99227.19;;;3.35;100.00